GRZ518 Details

Departure: Vancouver International Airport (CYVR)
Arrival: Ted Stevens Anchorage International Airport (PANC)
Route: FASBO J528 TRENA J488 UAB SSR YAK JOH WITTI4


Current Weather Information
CYVR 250400Z 18004KT 20SM FEW035 FEW085 FEW170 FEW230 17/14 A2999 RMK SC1AC1AC1CI1 SC TR AC TR SLP157 DENSITY ALT 200FT
PANC 250353Z 24005KT 10SM FEW060 SCT200 18/07 A2975 RMK AO2 SLP075 T01830072